Aérodrome :
LOGIN :

S'inscrire | Disclaimer

   EN    FR    IT 

 










Légende :    VFR   VFR Marginal   IFR   IFR Intensif   IFR Très Intensif
Visi : 
Plafond : 
>= 8 km
>= 3000ft
5 à 8 km
1000 à 3000 ft
1500m à 5 km
500 à 1000 ft
800 à 1500m
200 à 500 ft
< 800m
< 200 ft
Symboles :   Orages  Brouillard  Fortes neiges  Fortes précipitations  Vent > 20 kt
SIGMETs :   Divers  Orages  Givrage  Turbulence  Onde Orograph.  Cendres Volcan.







- Altitude de l'aérodrome : 461 ft
- Code IATA : WIE


ETOU - Wiesbaden Army

DERNIER METAR :
  • 231736Z AUTO 20007KT 9999 OVC029 07/04 A3024 RMK AO2 CIG 028 RWY07 SLP247 $

METARs EXPIRÉS :
  • 231656Z AUTO 21008KT 9999 OVC034 07/04 A3024 RMK AO2 SLP247 T00740044 $
  • 231556Z AUTO 22007KT 9999 OVC039 08/05 A3024 RMK AO2 SLP246 T00750045 $
  • 231456Z AUTO 23007KT 9999 FEW028 OVC040 08/05 A3025 RMK AO2 SLP250 60000 T00780046 56008 $

TAF TAF ETOU
Valide du 23 à 11h jusqu'au 24 à 17h UTC


231113Z 2311/2417 VRB06KT 9999 OVC030 QNH3024INS
BECMG 2320/2321 24010G15KT 6000 -RA OVC010 620604 QNH3022INS
BECMG 2401/2402 21009KT 5000 BR OVC009 620604 QNH3020INS
BECMG 2410/2411 21009KT 9000 -SHRA OVC010 QNH3004INS TX08/2312Z TN05/2410Z
Pas de NOTAMs connus pour ce terrain.



MET'MAP, la Météo Aéronautique d'un coup d'oeil ! - Copyright ORBIFLY Décembre 2007 - Disclaimer

ORBIFLY MET'MAP TEAM :

Programmation & Développement : Alexandra Zaïnal
Conception & Développement : Baudouin d'Aumeries
Co-Programmation & Développement : Marc-Olivier Méhu
Soutien technique & logistique : Manuel Goepfert

Contact : metmap@orbifly.com




SOURCES & CREDITS :

   NOAA